Time;durP1;ratioP1;P1;durP2;ratioP2;P2;SDS_P1;SDS_P2;PMS_P1;PMS_P2;Temp;Humidity;BMP_temperature;BMP_pressure;BME280_temperature;BME280_humidity;BME280_pressure;Samples;Min_cycle;Max_cycle;Signal;HPM_P1;HPM_P2
2021/11/07 00:05:02;;;;;;;13.10;12.60;;;21.20;83.80;;;;;;4952483;29;20945;-64
2021/11/07 00:07:37;;;;;;;13.30;12.90;;;21.10;83.90;;;;;;4954268;29;20451;-64
2021/11/07 00:10:11;;;;;;;13.00;12.60;;;21.10;84.30;;;;;;4953961;29;20494;-63
2021/11/07 00:12:41;;;;;;;13.60;13.20;;;21.00;85.30;;;;;;4954094;28;21012;-64
2021/11/07 00:15:08;;;;;;;14.17;13.77;;;20.90;85.70;;;;;;4954164;28;20501;-64
2021/11/07 00:17:37;;;;;;;14.33;13.93;;;20.90;86.10;;;;;;4953754;28;20448;-64
2021/11/07 00:20:08;;;;;;;13.87;13.37;;;20.80;87.20;;;;;;4953919;28;20452;-64
2021/11/07 00:22:46;;;;;;;13.37;12.97;;;20.80;87.40;;;;;;4953921;28;20461;-64
2021/11/07 00:25:20;;;;;;;14.13;13.63;;;20.70;88.60;;;;;;4954084;29;20448;-63
2021/11/07 00:27:50;;;;;;;13.80;13.40;;;20.70;89.00;;;;;;4954035;28;20532;-64
2021/11/07 00:30:23;;;;;;;13.80;13.20;;;20.60;88.90;;;;;;4953571;29;20503;-63
2021/11/07 00:33:03;;;;;;;13.80;13.40;;;20.60;90.00;;;;;;4953820;29;20552;-64
2021/11/07 00:35:50;;;;;;;13.97;13.53;;;20.50;90.10;;;;;;4953902;28;20516;-64
2021/11/07 00:38:19;;;;;;;14.10;13.60;;;20.50;90.80;;;;;;4953944;28;20503;-63
2021/11/07 00:40:52;;;;;;;13.40;13.00;;;20.40;90.60;;;;;;4953577;28;20453;-64
2021/11/07 00:43:24;;;;;;;13.60;13.20;;;20.40;91.00;;;;;;4953683;28;20460;-63
2021/11/07 00:46:03;;;;;;;13.33;12.93;;;20.40;90.80;;;;;;4953712;29;20452;-63
2021/11/07 00:48:36;;;;;;;14.73;14.03;;;20.30;91.00;;;;;;4953580;28;20509;-63
2021/11/07 00:51:12;;;;;;;14.60;14.10;;;20.30;90.70;;;;;;4953524;29;21041;-62
2021/11/07 00:53:47;;;;;;;14.20;13.80;;;20.30;91.10;;;;;;4953725;29;20842;-64
2021/11/07 00:56:28;;;;;;;14.03;13.50;;;20.30;91.30;;;;;;4953380;29;20456;-63
2021/11/07 00:59:01;;;;;;;13.70;13.30;;;20.20;91.30;;;;;;4953265;28;20982;-63
2021/11/07 01:01:34;;;;;;;13.13;12.83;;;20.20;91.50;;;;;;4953583;28;20444;-64
2021/11/07 01:04:04;;;;;;;14.27;13.77;;;20.10;91.90;;;;;;4953665;28;20830;-63
2021/11/07 01:06:31;;;;;;;13.60;13.20;;;20.10;91.70;;;;;;4953252;28;20965;-64
2021/11/07 01:08:58;;;;;;;13.73;13.23;;;20.10;91.90;;;;;;4953166;28;20994;-63
2021/11/07 01:11:25;;;;;;;13.63;13.23;;;20.10;92.00;;;;;;4953155;29;20487;-63
2021/11/07 01:13:52;;;;;;;13.50;13.10;;;20.00;92.00;;;;;;4953518;28;20541;-62
2021/11/07 01:16:19;;;;;;;13.40;13.00;;;20.00;92.30;;;;;;4953503;28;20448;-63
2021/11/07 01:18:47;;;;;;;13.83;13.43;;;20.00;91.90;;;;;;4952692;28;20870;-63
2021/11/07 01:21:17;;;;;;;14.83;14.33;;;20.00;92.40;;;;;;4953405;28;20452;-62
2021/11/07 01:23:48;;;;;;;13.93;13.53;;;20.00;92.40;;;;;;4953355;28;20484;-63
2021/11/07 01:26:19;;;;;;;13.40;13.00;;;19.90;92.80;;;;;;4953406;28;20935;-63
2021/11/07 01:28:49;;;;;;;13.60;13.20;;;19.90;93.00;;;;;;4954580;28;20891;-63
2021/11/07 01:31:16;;;;;;;13.40;13.00;;;19.90;93.30;;;;;;4956701;28;20575;-63
2021/11/07 01:33:44;;;;;;;13.30;12.90;;;19.90;93.70;;;;;;4957259;29;20488;-63
2021/11/07 01:36:24;;;;;;;13.90;13.50;;;19.90;93.70;;;;;;4957048;29;20948;-63
2021/11/07 01:38:56;;;;;;;13.70;13.30;;;19.80;93.70;;;;;;4956838;28;20468;-64
2021/11/07 01:41:26;;;;;;;13.10;12.80;;;19.80;94.20;;;;;;4957067;29;20480;-64
2021/11/07 01:43:56;;;;;;;13.60;13.20;;;19.90;94.50;;;;;;4956741;29;20465;-64
2021/11/07 01:46:29;;;;;;;12.80;12.40;;;19.80;95.00;;;;;;4956853;28;20456;-63
2021/11/07 01:49:03;;;;;;;13.10;12.70;;;19.80;95.40;;;;;;4956654;28;20477;-63
2021/11/07 01:51:32;;;;;;;13.70;13.30;;;19.80;95.60;;;;;;4956818;28;20491;-64
2021/11/07 01:54:10;;;;;;;13.77;13.37;;;19.80;96.10;;;;;;4956541;28;20456;-63
2021/11/07 01:56:37;;;;;;;13.50;13.10;;;19.80;96.50;;;;;;4956754;29;20448;-63
2021/11/07 01:59:04;;;;;;;13.40;13.00;;;19.80;96.90;;;;;;4956281;28;20476;-63
2021/11/07 02:01:31;;;;;;;13.50;13.10;;;19.80;97.30;;;;;;4956630;28;20672;-63
2021/11/07 02:03:59;;;;;;;13.60;13.20;;;19.70;97.30;;;;;;4956601;29;20830;-63
2021/11/07 02:06:26;;;;;;;12.80;12.50;;;19.70;97.40;;;;;;4956209;29;20846;-63
2021/11/07 02:08:52;;;;;;;13.60;13.10;;;19.70;98.20;;;;;;4956322;28;21141;-63
2021/11/07 02:11:21;;;;;;;13.83;13.33;;;19.70;98.40;;;;;;4956470;28;20488;-63
2021/11/07 02:13:49;;;;;;;13.50;13.10;;;19.70;98.50;;;;;;4956243;28;20451;-62
2021/11/07 02:16:17;;;;;;;13.83;13.37;;;19.60;98.50;;;;;;4956117;29;20559;-62
2021/11/07 02:18:43;;;;;;;13.33;12.97;;;19.70;98.50;;;;;;4956088;28;20557;-62
2021/11/07 02:21:12;;;;;;;14.33;13.67;;;19.60;98.90;;;;;;4956233;28;20475;-63
2021/11/07 02:23:39;;;;;;;14.17;13.77;;;19.60;99.50;;;;;;4956096;28;20539;-63
2021/11/07 02:26:07;;;;;;;13.27;12.87;;;19.70;99.80;;;;;;4956162;29;20453;-63
2021/11/07 02:28:36;;;;;;;13.40;13.00;;;19.60;99.90;;;;;;4956483;28;20495;-63
2021/11/07 02:31:05;;;;;;;13.50;13.10;;;19.60;99.90;;;;;;4955755;29;20611;-61
2021/11/07 02:33:31;;;;;;;14.00;13.60;;;19.60;99.90;;;;;;4955894;29;20808;-56
2021/11/07 02:36:04;;;;;;;13.33;12.93;;;19.50;99.90;;;;;;4956308;28;20488;-63
2021/11/07 02:38:33;;;;;;;12.70;12.40;;;19.60;99.90;;;;;;4955851;28;20979;-58
2021/11/07 02:40:59;;;;;;;13.40;13.00;;;19.50;99.90;;;;;;4955746;28;20452;-56
2021/11/07 02:43:26;;;;;;;13.57;13.17;;;19.50;99.90;;;;;;4955675;28;21062;-58
2021/11/07 02:45:53;;;;;;;13.33;12.87;;;19.50;99.90;;;;;;4955819;29;20449;-56
2021/11/07 02:48:20;;;;;;;13.87;13.47;;;19.50;99.90;;;;;;4955600;28;20480;-58
2021/11/07 02:50:46;;;;;;;13.27;12.97;;;19.40;99.90;;;;;;4955515;29;20489;-54
2021/11/07 02:53:13;;;;;;;14.00;13.50;;;19.40;99.90;;;;;;4955718;29;20449;-59
2021/11/07 02:55:42;;;;;;;13.20;12.80;;;19.40;99.90;;;;;;4955459;29;20448;-59
2021/11/07 02:58:09;;;;;;;14.43;13.93;;;19.40;99.90;;;;;;4955448;28;20975;-60
2021/11/07 03:00:37;;;;;;;13.30;12.90;;;19.30;99.90;;;;;;4955295;29;20456;-58
2021/11/07 03:03:03;;;;;;;13.70;13.30;;;19.40;99.90;;;;;;4955547;29;20970;-55
2021/11/07 03:05:31;;;;;;;13.10;12.70;;;19.30;99.90;;;;;;4955559;29;20463;-59
2021/11/07 03:07:58;;;;;;;12.87;12.47;;;19.30;99.90;;;;;;4955147;29;20468;-55
2021/11/07 03:10:26;;;;;;;13.37;12.97;;;19.30;99.90;;;;;;4955169;28;20488;-59
2021/11/07 03:13:06;;;;;;;13.33;12.93;;;19.40;99.90;;;;;;4955058;28;20453;-57
2021/11/07 03:15:34;;;;;;;13.03;12.63;;;19.40;99.90;;;;;;4955328;29;20969;-55
2021/11/07 03:18:01;;;;;;;12.83;12.53;;;19.40;99.90;;;;;;4955220;28;20477;-54
2021/11/07 03:20:28;;;;;;;13.50;13.10;;;19.40;99.90;;;;;;4954744;29;20539;-54
2021/11/07 03:22:56;;;;;;;13.93;13.53;;;19.40;99.90;;;;;;4955285;28;20457;-52
2021/11/07 03:25:24;;;;;;;13.40;13.10;;;19.30;99.90;;;;;;4955248;28;20527;-53
2021/11/07 03:27:52;;;;;;;13.37;12.97;;;19.30;99.90;;;;;;4954983;28;20603;-57
2021/11/07 03:30:29;;;;;;;13.87;13.47;;;19.30;99.90;;;;;;4954611;28;20465;-54
2021/11/07 03:33:08;;;;;;;13.80;13.40;;;19.30;99.90;;;;;;4954934;28;20864;-56
2021/11/07 03:35:35;;;;;;;13.90;13.40;;;19.30;99.90;;;;;;4954857;29;21014;-59
2021/11/07 03:38:01;;;;;;;13.30;12.90;;;19.30;99.90;;;;;;4954702;28;20472;-60
2021/11/07 03:40:29;;;;;;;13.80;13.40;;;19.30;99.90;;;;;;4954543;29;20453;-59
2021/11/07 03:42:56;;;;;;;13.90;13.50;;;19.30;99.90;;;;;;4954374;29;20839;-61
2021/11/07 03:45:26;;;;;;;13.33;12.93;;;19.30;99.90;;;;;;4954707;28;20460;-55
2021/11/07 03:47:53;;;;;;;13.07;12.77;;;19.30;99.90;;;;;;4954734;28;20472;-59
2021/11/07 03:50:20;;;;;;;12.60;12.30;;;19.30;99.90;;;;;;4954267;28;20460;-61
2021/11/07 03:52:48;;;;;;;13.30;12.90;;;19.30;99.90;;;;;;4954106;28;20834;-59
2021/11/07 03:55:15;;;;;;;13.40;13.00;;;19.20;99.90;;;;;;4954124;28;20459;-55
2021/11/07 03:57:42;;;;;;;12.37;12.07;;;19.30;99.90;;;;;;4954333;28;20463;-59
2021/11/07 04:00:10;;;;;;;13.70;13.30;;;19.30;99.90;;;;;;4954332;29;20456;-58
2021/11/07 04:02:39;;;;;;;13.77;13.37;;;19.30;99.90;;;;;;4954422;29;20456;-53
2021/11/07 04:05:07;;;;;;;12.90;12.60;;;19.20;99.90;;;;;;4954538;29;20810;-57
2021/11/07 04:07:34;;;;;;;13.53;13.13;;;19.30;99.90;;;;;;4953934;29;20950;-52
2021/11/07 04:10:00;;;;;;;13.73;13.33;;;19.30;99.90;;;;;;4954112;28;20460;-54
2021/11/07 04:12:27;;;;;;;13.40;13.00;;;19.20;99.90;;;;;;4954094;28;20487;-58
2021/11/07 04:14:54;;;;;;;12.97;12.60;;;19.20;99.90;;;;;;4954363;28;20815;-59
2021/11/07 04:17:20;;;;;;;13.27;12.87;;;19.20;99.90;;;;;;4954110;28;20452;-60
2021/11/07 04:19:48;;;;;;;13.30;12.90;;;19.20;99.90;;;;;;4953666;28;20479;-57
2021/11/07 04:22:15;;;;;;;13.20;12.80;;;19.20;99.90;;;;;;4953872;29;20449;-57
2021/11/07 04:24:42;;;;;;;13.13;12.73;;;19.20;99.90;;;;;;4954060;29;20830;-59
2021/11/07 04:27:09;;;;;;;13.87;13.37;;;19.20;99.90;;;;;;4953948;29;20948;-59
2021/11/07 04:29:36;;;;;;;13.70;13.30;;;19.20;99.90;;;;;;4953556;28;20476;-57
2021/11/07 04:32:03;;;;;;;13.83;13.43;;;19.20;99.90;;;;;;4954048;28;20719;-55
2021/11/07 04:34:31;;;;;;;13.50;13.10;;;19.20;99.90;;;;;;4953857;28;20821;-56
2021/11/07 04:37:01;;;;;;;13.00;12.70;;;19.30;99.90;;;;;;4953943;28;20456;-56
2021/11/07 04:39:28;;;;;;;13.50;13.10;;;19.30;99.90;;;;;;4953633;28;20483;-58
2021/11/07 04:41:55;;;;;;;13.57;13.17;;;19.30;99.90;;;;;;4953625;28;20445;-61
2021/11/07 04:44:22;;;;;;;13.17;12.77;;;19.30;99.90;;;;;;4953794;29;20867;-58
2021/11/07 04:46:50;;;;;;;12.33;12.03;;;19.20;99.90;;;;;;4953734;29;20445;-55
2021/11/07 04:49:17;;;;;;;13.53;13.13;;;19.30;99.90;;;;;;4953432;28;20469;-52
2021/11/07 04:51:45;;;;;;;12.63;12.33;;;19.30;99.90;;;;;;4953644;29;20854;-58
2021/11/07 04:54:13;;;;;;;13.03;12.73;;;19.30;99.90;;;;;;4953398;29;20459;-59
2021/11/07 04:56:40;;;;;;;13.30;12.90;;;19.30;99.90;;;;;;4953665;28;20456;-59
2021/11/07 04:59:07;;;;;;;13.60;13.10;;;19.30;99.90;;;;;;4953368;28;20465;-59
2021/11/07 05:01:34;;;;;;;13.20;12.80;;;19.20;99.90;;;;;;4953567;28;20448;-59
2021/11/07 05:04:01;;;;;;;13.53;13.13;;;19.20;99.90;;;;;;4953427;28;20931;-58
2021/11/07 05:06:28;;;;;;;13.67;13.27;;;19.20;99.90;;;;;;4953441;28;20448;-59
2021/11/07 05:08:56;;;;;;;13.90;13.50;;;19.20;99.90;;;;;;4953270;28;20468;-58
2021/11/07 05:11:24;;;;;;;14.30;13.90;;;19.20;99.90;;;;;;4953373;28;20484;-58
2021/11/07 05:13:51;;;;;;;13.67;13.27;;;19.30;99.90;;;;;;4953425;28;20854;-54
2021/11/07 05:16:18;;;;;;;13.50;13.10;;;19.20;99.90;;;;;;4953225;28;20452;-54
2021/11/07 05:18:44;;;;;;;14.80;14.30;;;19.30;99.90;;;;;;4952860;28;20480;-54
2021/11/07 05:21:11;;;;;;;13.20;12.80;;;19.30;99.90;;;;;;4953442;28;20445;-58
2021/11/07 05:23:38;;;;;;;13.73;13.33;;;19.30;99.90;;;;;;4953425;28;21021;-57
2021/11/07 05:26:05;;;;;;;13.80;13.40;;;19.30;99.90;;;;;;4953117;28;20483;-59
2021/11/07 05:28:34;;;;;;;13.67;13.27;;;19.20;99.90;;;;;;4953154;28;20469;-55
2021/11/07 05:31:00;;;;;;;13.87;13.47;;;19.20;99.90;;;;;;4953182;29;20551;-60
2021/11/07 05:33:28;;;;;;;13.20;12.90;;;19.30;99.90;;;;;;4953205;29;20453;-59
2021/11/07 05:35:54;;;;;;;13.33;12.93;;;19.20;99.90;;;;;;4952934;29;20455;-61
2021/11/07 05:38:21;;;;;;;14.37;13.90;;;19.20;99.90;;;;;;4953298;28;20523;-55
2021/11/07 05:40:48;;;;;;;14.27;13.77;;;19.20;99.90;;;;;;4953128;28;20444;-59
2021/11/07 05:43:15;;;;;;;13.40;13.00;;;19.20;99.90;;;;;;4953227;28;20455;-59
2021/11/07 05:45:43;;;;;;;14.30;13.90;;;19.20;99.90;;;;;;4953267;28;20457;-60
2021/11/07 05:48:10;;;;;;;14.23;13.83;;;19.30;99.90;;;;;;4952864;28;20479;-59
2021/11/07 05:50:36;;;;;;;13.80;13.40;;;19.30;99.90;;;;;;4952731;29;20449;-58
2021/11/07 05:53:03;;;;;;;13.83;13.43;;;19.20;99.90;;;;;;4953087;28;20484;-61
2021/11/07 05:55:30;;;;;;;13.60;13.20;;;19.30;99.90;;;;;;4953110;28;20449;-53
2021/11/07 05:57:57;;;;;;;13.97;13.57;;;19.80;99.90;;;;;;4952978;28;20471;-55
2021/11/07 06:00:25;;;;;;;13.50;13.10;;;20.20;99.90;;;;;;4952634;28;20531;-54
2021/11/07 06:02:54;;;;;;;13.73;13.33;;;20.40;99.90;;;;;;4952999;28;20496;-53
2021/11/07 06:05:20;;;;;;;13.80;13.40;;;20.50;99.90;;;;;;4953127;28;20456;-59
2021/11/07 06:07:49;;;;;;;13.87;13.47;;;20.50;99.90;;;;;;4952934;28;20456;-58
2021/11/07 06:10:16;;;;;;;14.30;13.80;;;20.60;99.90;;;;;;4952646;29;20452;-58
2021/11/07 06:12:44;;;;;;;14.30;13.90;;;20.60;99.90;;;;;;4952613;29;20551;-59
2021/11/07 06:15:12;;;;;;;14.33;13.90;;;20.70;99.90;;;;;;4954666;28;20463;-56
2021/11/07 06:17:39;;;;;;;13.67;13.27;;;20.70;99.90;;;;;;4956071;28;20957;-58
2021/11/07 06:20:08;;;;;;;13.90;13.50;;;20.70;99.90;;;;;;4956083;28;20917;-58
2021/11/07 06:22:35;;;;;;;14.20;13.80;;;20.70;99.90;;;;;;4955769;29;20445;-58
2021/11/07 06:25:03;;;;;;;13.30;12.90;;;20.70;99.90;;;;;;4956280;28;20452;-60
2021/11/07 06:27:30;;;;;;;16.47;15.77;;;20.70;99.90;;;;;;4956175;28;20457;-55
2021/11/07 06:29:57;;;;;;;17.07;16.33;;;20.60;97.70;;;;;;4955930;28;21006;-56
2021/11/07 06:32:24;;;;;;;17.13;16.43;;;19.00;99.90;;;;;;4955897;28;20484;-55
2021/11/07 06:34:51;;;;;;;17.60;17.00;;;18.40;99.90;;;;;;4955922;29;20452;-50
2021/11/07 06:37:19;;;;;;;18.17;17.47;;;18.00;99.90;;;;;;4956050;29;20448;-50
2021/11/07 06:39:46;;;;;;;16.77;16.17;;;17.70;99.90;;;;;;4955573;28;20473;-53
2021/11/07 06:42:13;;;;;;;17.33;16.73;;;17.50;99.90;;;;;;4955823;29;20456;-52
2021/11/07 06:44:39;;;;;;;12.93;12.53;;;17.40;99.90;;;;;;4955152;29;20457;-52
2021/11/07 06:47:08;;;;;;;11.00;10.60;;;17.20;99.90;;;;;;4955850;28;20448;-55
2021/11/07 06:49:35;;;;;;;10.53;10.13;;;17.10;99.90;;;;;;4955254;28;20469;-54
2021/11/07 06:52:03;;;;;;;11.20;10.80;;;17.00;99.90;;;;;;4955508;28;20540;-50
2021/11/07 06:54:31;;;;;;;10.90;10.50;;;16.70;99.90;;;;;;4955621;29;20543;-50
2021/11/07 06:56:58;;;;;;;10.60;10.30;;;16.70;99.90;;;;;;4955715;29;20456;-52
2021/11/07 06:59:25;;;;;;;10.63;10.20;;;16.50;99.90;;;;;;4955024;28;20473;-53
2021/11/07 07:01:52;;;;;;;10.97;10.53;;;16.40;99.90;;;;;;4955828;28;20851;-53
2021/11/07 07:04:19;;;;;;;10.40;10.00;;;16.60;99.90;;;;;;4955627;28;20818;-53
2021/11/07 07:06:45;;;;;;;10.53;10.13;;;16.60;99.90;;;;;;4955586;28;20460;-54
2021/11/07 07:09:15;;;;;;;10.33;9.93;;;16.60;99.90;;;;;;4955020;28;20484;-55
2021/11/07 07:11:44;;;;;;;10.70;10.30;;;16.70;99.90;;;;;;4954999;28;21038;-56
2021/11/07 07:14:14;;;;;;;10.90;10.40;;;16.60;99.90;;;;;;4955093;29;20465;-60
2021/11/07 07:16:52;;;;;;;9.70;9.30;;;16.40;99.90;;;;;;4955188;29;20457;-53
2021/11/07 07:19:37;;;;;;;8.77;8.57;;;16.50;99.90;;;;;;4955144;28;20485;-54
2021/11/07 07:22:16;;;;;;;9.83;9.43;;;16.60;99.90;;;;;;4955194;29;20456;-53
2021/11/07 07:25:16;;;;;;;10.57;10.17;;;16.70;99.90;;;;;;4954849;29;20452;-50
2021/11/07 07:28:00;;;;;;;9.87;9.57;;;16.60;99.90;;;;;;4954174;28;20490;-53
2021/11/07 07:30:34;;;;;;;10.33;9.90;;;16.80;99.90;;;;;;4954827;28;20466;-54
2021/11/07 07:33:14;;;;;;;10.60;10.10;;;16.60;99.90;;;;;;4955079;29;20484;-52
2021/11/07 07:35:40;;;;;;;10.10;9.80;;;16.70;99.90;;;;;;4954956;28;21034;-51
2021/11/07 07:38:07;;;;;;;10.20;9.70;;;16.50;99.90;;;;;;4954458;29;20468;-50
2021/11/07 07:40:34;;;;;;;10.70;10.20;;;16.50;99.90;;;;;;4954676;28;20448;-52
2021/11/07 07:43:02;;;;;;;10.20;9.80;;;16.90;99.90;;;;;;4954937;28;20440;-52
2021/11/07 07:45:29;;;;;;;9.00;8.80;;;16.60;99.90;;;;;;4954816;28;20444;-55
2021/11/07 07:47:57;;;;;;;10.23;9.73;;;16.90;99.90;;;;;;4954616;28;20477;-54
2021/11/07 07:50:24;;;;;;;9.33;8.93;;;16.90;99.90;;;;;;4954318;28;20573;-55
2021/11/07 07:52:51;;;;;;;9.27;8.97;;;16.80;99.90;;;;;;4954447;29;20484;-57
2021/11/07 07:55:18;;;;;;;9.03;8.73;;;16.80;99.90;;;;;;4954639;29;20766;-55
2021/11/07 07:57:46;;;;;;;10.30;9.80;;;16.80;99.90;;;;;;4954340;28;20480;-56
2021/11/07 08:00:20;;;;;;;10.10;9.40;;;16.90;99.90;;;;;;4953926;29;20457;-51
2021/11/07 08:02:46;;;;;;;8.83;8.53;;;16.80;99.90;;;;;;4954431;28;20452;-53
2021/11/07 08:05:14;;;;;;;9.30;9.00;;;16.50;99.90;;;;;;4954114;28;20456;-53
2021/11/07 08:07:42;;;;;;;11.00;10.53;;;16.50;99.90;;;;;;4954236;28;20448;-51
2021/11/07 08:10:10;;;;;;;9.47;9.03;;;16.50;99.90;;;;;;4953860;28;20468;-56
2021/11/07 08:12:38;;;;;;;9.00;8.70;;;16.80;99.90;;;;;;4954123;29;20492;-56
2021/11/07 08:15:05;;;;;;;9.10;8.70;;;16.70;99.90;;;;;;4954066;29;20589;-54
2021/11/07 08:17:34;;;;;;;9.80;9.50;;;16.80;99.90;;;;;;4934981;29;20814;-52
2021/11/07 08:20:03;;;;;;;8.57;8.27;;;16.60;99.90;;;;;;4934768;29;20454;-55
2021/11/07 08:22:30;;;;;;;10.53;9.93;;;16.60;99.90;;;;;;4935131;29;20481;-50
2021/11/07 08:24:57;;;;;;;10.00;9.53;;;16.60;99.90;;;;;;4934928;29;20454;-57
2021/11/07 08:27:25;;;;;;;8.57;8.27;;;16.50;99.90;;;;;;4933663;29;20454;-61
2021/11/07 08:29:54;;;;;;;8.83;8.63;;;16.50;99.90;;;;;;4942499;28;20785;-60
2021/11/07 08:32:21;;;;;;;8.47;8.27;;;17.40;99.90;;;;;;4941997;28;20572;-55
2021/11/07 08:34:51;;;;;;;8.07;7.83;;;17.90;99.90;;;;;;4942001;28;20535;-58
2021/11/07 08:37:19;;;;;;;8.73;8.53;;;18.20;99.90;;;;;;4941840;28;20990;-54
2021/11/07 08:39:48;;;;;;;8.33;8.03;;;18.30;99.90;;;;;;4941468;28;20476;-60
2021/11/07 08:42:18;;;;;;;8.63;8.43;;;18.50;99.90;;;;;;4942115;29;20457;-58
2021/11/07 09:01:29;;;;;;;9.23;9.03;;;19.20;99.90;;;;;;4942056;29;20572;-60
2021/11/07 09:04:03;;;;;;;9.60;9.30;;;19.30;99.90;;;;;;4941853;28;20496;-60
2021/11/07 09:06:44;;;;;;;8.83;8.63;;;19.30;99.90;;;;;;4941709;29;20519;-59
2021/11/07 09:09:12;;;;;;;9.43;9.13;;;19.40;99.90;;;;;;4941516;28;20575;-60
2021/11/07 09:11:48;;;;;;;8.80;8.60;;;19.40;99.90;;;;;;4941728;28;20487;-56
2021/11/07 09:14:15;;;;;;;8.03;7.87;;;19.50;99.90;;;;;;4941522;28;20579;-59
2021/11/07 09:16:42;;;;;;;9.70;9.40;;;19.60;99.90;;;;;;4940384;28;20500;-58
2021/11/07 09:19:10;;;;;;;9.33;9.03;;;19.60;99.90;;;;;;4941463;28;20472;-59
2021/11/07 09:21:42;;;;;;;8.60;8.30;;;19.70;99.90;;;;;;4941460;28;20539;-54
2021/11/07 09:24:13;;;;;;;8.40;8.20;;;19.70;99.90;;;;;;4941702;28;20448;-61
2021/11/07 09:26:42;;;;;;;8.60;8.40;;;19.80;99.90;;;;;;4923826;28;20461;-58
2021/11/07 09:29:11;;;;;;;9.10;8.80;;;19.80;99.90;;;;;;4922195;29;20485;-58
2021/11/07 09:31:53;;;;;;;9.33;9.03;;;19.80;99.90;;;;;;4922296;29;20478;-60
2021/11/07 09:34:26;;;;;;;8.37;8.17;;;19.90;99.90;;;;;;4934521;29;20488;-59
2021/11/07 09:37:01;;;;;;;9.10;8.90;;;19.90;99.90;;;;;;4941403;28;20449;-58
2021/11/07 09:39:35;;;;;;;8.97;8.77;;;20.00;99.90;;;;;;4932553;28;20480;-57
2021/11/07 09:42:25;;;;;;;9.10;8.90;;;20.00;99.90;;;;;;4922722;29;20464;-60
2021/11/07 09:44:57;;;;;;;9.07;8.77;;;20.10;99.90;;;;;;4938899;29;21004;-60
2021/11/07 09:47:27;;;;;;;9.00;8.80;;;20.10;99.90;;;;;;4941682;28;20457;-62
2021/11/07 09:49:54;;;;;;;9.83;9.43;;;20.10;99.90;;;;;;4942713;28;21077;-60
2021/11/07 09:52:24;;;;;;;9.70;9.10;;;20.20;99.90;;;;;;4944859;28;20456;-58
2021/11/07 09:54:58;;;;;;;9.20;8.93;;;20.20;99.90;;;;;;4942336;28;20543;-59
2021/11/07 09:57:25;;;;;;;8.33;8.13;;;20.10;99.90;;;;;;4926098;29;20457;-59
2021/11/07 09:59:54;;;;;;;8.83;8.60;;;20.10;99.90;;;;;;4925754;29;20899;-60
2021/11/07 10:02:22;;;;;;;9.33;9.10;;;20.10;99.90;;;;;;4925981;29;21044;-59
2021/11/07 10:04:50;;;;;;;8.60;8.40;;;20.10;99.90;;;;;;4925554;29;20465;-60
2021/11/07 10:07:20;;;;;;;9.00;8.73;;;20.20;99.90;;;;;;4932021;29;20460;-60
2021/11/07 10:09:53;;;;;;;9.43;9.13;;;20.10;99.90;;;;;;4944330;28;20473;-59
2021/11/07 10:12:22;;;;;;;9.83;9.33;;;20.20;99.90;;;;;;4944529;28;20478;-59
2021/11/07 10:14:55;;;;;;;9.23;9.03;;;20.20;99.90;;;;;;4944751;28;21320;-56
2021/11/07 10:17:27;;;;;;;9.60;9.20;;;20.20;99.90;;;;;;4944605;28;20459;-62
2021/11/07 10:20:07;;;;;;;8.90;8.70;;;20.10;99.90;;;;;;4933064;28;20654;-59
2021/11/07 10:22:35;;;;;;;9.10;8.90;;;20.20;99.90;;;;;;4925784;29;20473;-60
2021/11/07 10:25:08;;;;;;;9.43;9.10;;;20.20;99.90;;;;;;4925268;29;20461;-60
2021/11/07 10:27:39;;;;;;;9.37;9.07;;;20.20;99.90;;;;;;4925240;29;20923;-59
2021/11/07 10:30:16;;;;;;;9.20;8.90;;;20.20;99.90;;;;;;4937625;29;20464;-58
2021/11/07 10:32:56;;;;;;;9.00;8.80;;;20.20;99.90;;;;;;4944285;28;20566;-60
2021/11/07 10:38:26;;;;;;;7.73;7.53;;;20.40;99.90;;;;;;4936918;28;20881;-61
2021/11/07 10:41:10;;;;;;;7.97;7.70;;;20.40;99.90;;;;;;4943675;29;20910;-61
2021/11/07 10:43:53;;;;;;;7.57;7.37;;;20.40;99.90;;;;;;4951703;28;20444;-56
2021/11/07 10:46:43;;;;;;;7.90;7.70;;;20.40;99.90;;;;;;4955975;28;20444;-54
2021/11/07 10:52:19;;;;;;;8.23;7.93;;;20.30;99.90;;;;;;4955946;29;20416;-57
2021/11/07 10:54:46;;;;;;;8.23;7.93;;;20.30;99.90;;;;;;4955715;28;20516;-61
2021/11/07 10:57:17;;;;;;;8.17;7.90;;;20.70;99.90;;;;;;4955372;29;20456;-62
2021/11/07 10:59:44;;;;;;;8.00;7.80;;;21.00;99.90;;;;;;4955404;28;20468;-62
2021/11/07 11:02:36;;;;;;;9.30;8.90;;;21.30;99.90;;;;;;4955704;28;20445;-62
2021/11/07 11:05:06;;;;;;;9.57;9.37;;;21.50;99.90;;;;;;4955530;28;20512;-61
2021/11/07 11:07:33;;;;;;;8.70;8.50;;;21.90;99.90;;;;;;4955507;28;20508;-61
2021/11/07 11:10:12;;;;;;;8.87;8.63;;;22.20;99.70;;;;;;4955214;29;20449;-59
2021/11/07 11:13:02;;;;;;;8.60;8.40;;;23.00;98.10;;;;;;4955449;29;20452;-61
2021/11/07 11:15:36;;;;;;;9.10;8.80;;;23.80;94.30;;;;;;4955361;28;20509;-61
2021/11/07 11:18:14;;;;;;;9.90;9.57;;;23.80;92.70;;;;;;4954962;29;20477;-61
2021/11/07 11:21:09;;;;;;;9.93;9.63;;;22.90;93.20;;;;;;4955278;28;20457;-61
2021/11/07 11:23:47;;;;;;;9.87;9.47;;;22.20;95.50;;;;;;4955269;28;20523;-60
2021/11/07 11:26:26;;;;;;;10.33;9.93;;;21.70;97.20;;;;;;4955437;28;20456;-61
2021/11/07 11:29:04;;;;;;;8.90;8.70;;;21.50;98.20;;;;;;4954886;28;20548;-61
2021/11/07 11:31:36;;;;;;;9.20;8.90;;;21.30;98.80;;;;;;4954596;29;20511;-62
2021/11/07 11:34:08;;;;;;;9.23;8.93;;;21.30;99.30;;;;;;4955172;28;20495;-63
2021/11/07 11:36:44;;;;;;;9.80;9.50;;;21.50;98.90;;;;;;4955159;28;20448;-58
2021/11/07 11:39:14;;;;;;;9.77;9.57;;;22.20;97.50;;;;;;4954683;28;20472;-59
2021/11/07 11:41:46;;;;;;;9.47;9.17;;;23.50;93.90;;;;;;4954740;28;20448;-59
2021/11/07 11:44:16;;;;;;;9.53;9.23;;;22.90;93.40;;;;;;4954872;29;20453;-60
2021/11/07 11:46:51;;;;;;;9.73;9.53;;;22.20;95.00;;;;;;4954491;29;20511;-61
2021/11/07 11:49:43;;;;;;;9.70;9.40;;;21.90;96.20;;;;;;4954396;28;20929;-61
2021/11/07 11:52:22;;;;;;;9.60;9.30;;;21.50;97.40;;;;;;4954681;28;20481;-61
2021/11/07 11:55:04;;;;;;;9.80;9.50;;;21.30;97.80;;;;;;4954444;28;20884;-61
2021/11/07 12:00:43;;;;;;;9.27;9.07;;;21.20;98.70;;;;;;4937538;28;21082;-64
2021/11/07 12:03:17;;;;;;;9.63;9.40;;;21.70;98.30;;;;;;4955230;28;20504;-63
2021/11/07 12:05:48;;;;;;;10.17;9.50;;;22.50;96.00;;;;;;4954307;28;20548;-61
2021/11/07 12:08:22;;;;;;;9.90;9.60;;;22.60;94.60;;;;;;4954323;28;20475;-62
2021/11/07 12:10:55;;;;;;;9.90;9.50;;;23.00;94.30;;;;;;4954442;29;20436;-64
2021/11/07 12:13:32;;;;;;;10.57;10.13;;;23.40;92.70;;;;;;4953742;28;20571;-61
2021/11/07 12:16:06;;;;;;;11.27;10.77;;;23.00;92.60;;;;;;4954136;29;20452;-63
2021/11/07 12:18:32;;;;;;;11.20;10.40;;;22.40;94.00;;;;;;4953894;28;20479;-61
2021/11/07 12:21:01;;;;;;;12.63;11.67;;;22.10;95.50;;;;;;4953707;28;20457;-62
2021/11/07 12:23:32;;;;;;;12.87;11.87;;;22.00;97.10;;;;;;4953838;29;20453;-62
2021/11/07 12:26:25;;;;;;;14.57;13.20;;;21.90;98.00;;;;;;4954126;29;20449;-62
2021/11/07 12:28:53;;;;;;;13.60;12.80;;;21.80;99.00;;;;;;4953616;28;20990;-63
2021/11/07 12:31:22;;;;;;;14.77;13.87;;;21.70;99.10;;;;;;4953777;28;20961;-61
2021/11/07 12:33:54;;;;;;;14.40;13.30;;;21.70;99.70;;;;;;4953996;28;20491;-59
2021/11/07 12:36:36;;;;;;;13.60;12.70;;;21.60;99.50;;;;;;4953880;28;20484;-64
2021/11/07 12:41:48;;;;;;;14.93;13.90;;;21.30;99.80;;;;;;4954262;29;20447;-65
2021/11/07 12:44:25;;;;;;;14.10;13.10;;;21.10;99.90;;;;;;4954011;28;20464;-63
2021/11/07 12:46:57;;;;;;;15.80;14.50;;;21.00;99.90;;;;;;4953794;28;20445;-62
2021/11/07 12:49:26;;;;;;;15.53;14.33;;;20.90;99.90;;;;;;4953624;28;20559;-63
2021/11/07 12:51:55;;;;;;;17.70;16.17;;;20.80;99.90;;;;;;4953952;28;20515;-63
2021/11/07 12:54:30;;;;;;;15.37;14.07;;;20.80;99.90;;;;;;4953518;28;20488;-62
2021/11/07 12:56:59;;;;;;;16.23;14.77;;;20.80;99.90;;;;;;4953532;29;20456;-63
2021/11/07 12:59:33;;;;;;;15.80;14.70;;;20.80;99.90;;;;;;4953438;28;20503;-63
2021/11/07 13:02:24;;;;;;;14.80;13.70;;;21.00;99.90;;;;;;4953581;29;20475;-51
2021/11/07 13:04:57;;;;;;;15.27;14.10;;;21.50;99.90;;;;;;4953278;29;20452;-56
2021/11/07 13:07:28;;;;;;;14.20;13.20;;;22.00;99.90;;;;;;4953605;28;20811;-53
2021/11/07 13:10:00;;;;;;;14.93;13.83;;;22.20;98.70;;;;;;4953234;28;20475;-58
2021/11/07 13:12:34;;;;;;;14.77;13.67;;;22.40;98.20;;;;;;4953598;28;20452;-55
2021/11/07 13:21:14;;;;;;;13.67;12.77;;;22.70;96.30;;;;;;4953521;29;21012;-56
2021/11/07 13:23:52;;;;;;;14.90;13.73;;;22.80;95.50;;;;;;4953398;28;20507;-56
2021/11/07 13:26:31;;;;;;;13.80;12.80;;;22.80;95.10;;;;;;4957461;29;20822;-59
2021/11/07 13:29:26;;;;;;;14.90;13.70;;;22.60;95.50;;;;;;4957037;28;20515;-63